createdAt,value
2018-11-23T00:00:50.736Z,93.9
2018-11-23T00:02:50.693Z,93.7
2018-11-23T00:04:50.114Z,93.2
2018-11-23T00:06:50.399Z,93.5
2018-11-23T00:08:50.376Z,93.4
2018-11-23T00:10:50.455Z,93.2
2018-11-23T00:12:50.423Z,93.6
2018-11-23T00:14:50.455Z,93.3
2018-11-23T00:16:50.752Z,93.8
2018-11-23T00:18:49.832Z,94.1
2018-11-23T00:20:49.891Z,94.0
2018-11-23T00:22:49.861Z,93.9
2018-11-23T00:24:49.879Z,93.8
2018-11-23T00:26:50.048Z,93.8
2018-11-23T00:28:50.047Z,93.9
2018-11-23T00:30:50.003Z,94.0
2018-11-23T00:32:49.988Z,93.9
2018-11-23T00:34:50.218Z,94.3
2018-11-23T00:36:50.437Z,94.5
2018-11-23T00:38:50.485Z,94.2
2018-11-23T00:40:50.442Z,94.2
2018-11-23T00:42:50.654Z,94.6
2018-11-23T00:44:50.574Z,94.7
2018-11-23T00:46:49.933Z,94.4
2018-11-23T00:48:50.068Z,94.0
2018-11-23T00:50:50.062Z,94.0
2018-11-23T00:52:50.050Z,94.0
2018-11-23T00:54:50.060Z,93.9
2018-11-23T00:56:50.307Z,94.4
2018-11-23T00:58:50.356Z,94.3
2018-11-23T01:00:50.346Z,94.2
2018-11-23T01:02:50.433Z,94.2
2018-11-23T01:04:50.641Z,94.0
2018-11-23T01:06:49.899Z,94.1
2018-11-23T01:08:49.979Z,94.1
2018-11-23T01:10:49.945Z,94.1
2018-11-23T01:12:49.977Z,94.3
2018-11-23T01:14:50.044Z,94.3
2018-11-23T01:16:50.217Z,94.3
2018-11-23T01:18:50.243Z,94.8
2018-11-23T01:20:50.237Z,94.3
2018-11-23T01:22:50.275Z,94.3
2018-11-23T01:24:50.258Z,94.7
2018-11-23T01:26:50.550Z,95.0
2018-11-23T01:28:50.525Z,94.9
2018-11-23T01:30:50.564Z,94.5
2018-11-23T01:32:50.622Z,94.5
2018-11-23T01:34:50.053Z,94.7
2018-11-23T01:36:50.205Z,94.6
2018-11-23T01:38:50.264Z,94.9
2018-11-23T01:40:50.228Z,94.5
2018-11-23T01:42:50.240Z,94.5
2018-11-23T01:44:50.241Z,94.5
2018-11-23T01:46:50.489Z,94.7
2018-11-23T01:48:50.442Z,94.4
2018-11-23T01:50:50.464Z,94.6
2018-11-23T01:52:50.435Z,94.7
2018-11-23T01:54:50.467Z,94.8
2018-11-23T01:56:50.650Z,94.6
2018-11-23T01:58:50.648Z,94.6
2018-11-23T02:00:50.599Z,95.0
2018-11-23T02:02:50.582Z,94.9
2018-11-23T02:04:49.994Z,94.9
2018-11-23T02:06:50.278Z,94.9
2018-11-23T02:08:50.313Z,94.8
2018-11-23T02:10:50.345Z,95.1
2018-11-23T02:12:50.434Z,95.0
2018-11-23T02:14:50.485Z,95.5
2018-11-23T02:16:50.736Z,95.4
2018-11-23T02:18:49.801Z,95.3
2018-11-23T02:20:49.848Z,95.1
2018-11-23T02:22:50.194Z,95.2
2018-11-23T02:24:50.366Z,95.2
2018-11-23T02:26:50.587Z,95.2
2018-11-23T02:28:50.646Z,95.2
2018-11-23T02:30:50.662Z,95.5
2018-11-23T02:32:50.665Z,95.1
2018-11-23T02:34:50.106Z,95.0
2018-11-23T02:36:50.288Z,95.9
2018-11-23T02:38:50.355Z,95.5
2018-11-23T02:40:50.390Z,95.3
2018-11-23T02:42:50.349Z,95.4
2018-11-23T02:44:50.373Z,95.0
2018-11-23T02:46:50.582Z,94.7
2018-11-23T02:48:50.665Z,94.4
2018-11-23T02:50:50.602Z,94.7
2018-11-23T02:52:50.770Z,95.0
2018-11-23T02:54:50.765Z,95.3
2018-11-23T02:56:49.911Z,95.3
2018-11-23T02:58:49.936Z,95.3
2018-11-23T03:00:49.909Z,94.9
2018-11-23T03:02:49.971Z,95.0
2018-11-23T03:04:50.415Z,95.4
2018-11-23T03:06:50.721Z,95.1
2018-11-23T03:08:50.370Z,94.6
2018-11-23T03:10:50.404Z,94.5
2018-11-23T03:12:50.362Z,94.8
2018-11-23T03:14:50.369Z,95.3
2018-11-23T03:16:50.540Z,95.8
2018-11-23T03:18:50.509Z,96.1
2018-11-23T03:20:50.578Z,96.1
2018-11-23T03:22:50.565Z,96.2
2018-11-23T03:24:50.567Z,96.1
2018-11-23T03:26:50.751Z,96.0
2018-11-23T03:28:50.751Z,95.9
2018-11-23T03:30:50.777Z,95.3
2018-11-23T03:32:50.733Z,95.2
2018-11-23T03:34:50.110Z,96.0
2018-11-23T03:36:50.228Z,95.5
2018-11-23T03:38:50.250Z,96.5
2018-11-23T03:40:50.302Z,96.2
2018-11-23T03:42:50.302Z,96.0
2018-11-23T03:44:50.305Z,96.0
2018-11-23T03:46:50.613Z,96.1
2018-11-23T03:48:50.652Z,95.7
2018-11-23T03:50:50.624Z,95.5
2018-11-23T03:52:50.682Z,96.0
2018-11-23T03:54:50.628Z,95.5
2018-11-23T03:56:49.942Z,95.7
2018-11-23T03:58:49.929Z,95.9
2018-11-23T04:00:49.939Z,96.6
2018-11-23T04:02:50.042Z,96.2
2018-11-23T04:04:50.453Z,96.3
2018-11-23T04:06:50.642Z,96.1
2018-11-23T04:08:50.619Z,96.0
2018-11-23T04:10:50.565Z,96.6
2018-11-23T04:12:50.612Z,96.5
2018-11-23T04:14:50.643Z,96.2
2018-11-23T04:16:49.935Z,96.0
2018-11-23T04:18:49.983Z,96.2
2018-11-23T04:20:50.038Z,96.1
2018-11-23T04:22:50.072Z,96.6
2018-11-23T04:24:50.062Z,96.6
2018-11-23T04:26:50.288Z,96.8
2018-11-23T04:28:50.307Z,96.1
2018-11-23T04:30:50.276Z,96.4
2018-11-23T04:32:50.325Z,96.5
2018-11-23T04:34:50.513Z,96.6
2018-11-23T04:36:50.641Z,96.5
2018-11-23T04:38:50.721Z,96.3
2018-11-23T04:40:50.672Z,96.5
2018-11-23T04:42:49.793Z,95.8
2018-11-23T04:44:50.784Z,96.0
2018-11-23T04:46:49.939Z,96.1
2018-11-23T04:48:49.998Z,96.6
2018-11-23T04:50:50.015Z,96.1
2018-11-23T04:52:50.094Z,96.4
2018-11-23T04:54:50.157Z,96.4
2018-11-23T04:56:50.425Z,96.5
2018-11-23T04:58:50.371Z,96.7
2018-11-23T05:00:50.365Z,96.7
2018-11-23T05:02:50.445Z,97.0
2018-11-23T05:04:49.819Z,97.0
2018-11-23T05:06:50.077Z,96.5
2018-11-23T05:08:50.047Z,96.8
2018-11-23T05:10:50.025Z,97.0
2018-11-23T05:12:50.049Z,97.5
2018-11-23T05:14:50.002Z,97.1
2018-11-23T05:16:50.119Z,97.1
2018-11-23T05:18:50.090Z,97.1
2018-11-23T05:20:50.099Z,97.0
2018-11-23T05:22:50.196Z,97.5
2018-11-23T05:24:50.201Z,97.3
2018-11-23T05:26:49.816Z,97.6
2018-11-23T05:28:49.929Z,97.6
2018-11-23T05:30:49.978Z,97.6
2018-11-23T05:32:50.005Z,97.6
2018-11-23T05:34:50.286Z,97.1
2018-11-23T05:36:50.484Z,97.3
2018-11-23T05:38:50.553Z,97.7
2018-11-23T05:40:50.478Z,98.1
2018-11-23T05:42:50.670Z,97.5
2018-11-23T05:44:50.615Z,97.7
2018-11-23T05:46:49.795Z,97.8
2018-11-23T05:48:49.926Z,98.6
2018-11-23T05:50:49.892Z,98.4
2018-11-23T05:52:49.921Z,98.5
2018-11-23T05:54:50.029Z,98.9
2018-11-23T05:56:50.117Z,98.9
2018-11-23T05:58:50.121Z,98.4
2018-11-23T06:00:50.114Z,98.9
2018-11-23T06:02:50.195Z,99.0
2018-11-23T06:04:50.460Z,99.0
2018-11-23T06:06:50.713Z,99.3
2018-11-23T06:08:50.665Z,99.4
2018-11-23T06:10:50.696Z,99.9
2018-11-23T06:12:50.693Z,99.6
2018-11-23T06:14:50.685Z,99.7
2018-11-23T06:16:49.978Z,99.2
2018-11-23T06:18:49.946Z,99.0
2018-11-23T06:20:50.078Z,99.5
2018-11-23T06:22:50.088Z,99.5
2018-11-23T06:24:50.080Z,99.9
2018-11-23T06:26:50.274Z,99.7
2018-11-23T06:28:50.275Z,99.6
2018-11-23T06:30:50.339Z,99.8
2018-11-23T06:32:50.326Z,99.6
2018-11-23T06:34:50.636Z,100.0
2018-11-23T06:36:50.497Z,100.0
2018-11-23T06:38:50.450Z,100.0
2018-11-23T06:40:50.505Z,99.8
2018-11-23T06:42:50.494Z,100.0
2018-11-23T06:44:50.599Z,100.0
2018-11-23T06:46:49.932Z,100.0
2018-11-23T06:48:50.008Z,100.0
2018-11-23T06:50:50.073Z,100.0
2018-11-23T06:52:50.104Z,100.0
2018-11-23T06:54:50.119Z,100.0
2018-11-23T06:56:50.401Z,100.0
2018-11-23T06:58:50.387Z,100.0
2018-11-23T07:00:50.331Z,100.0
2018-11-23T07:02:50.401Z,99.9
2018-11-23T07:04:49.822Z,99.9
2018-11-23T07:06:50.073Z,99.9
2018-11-23T07:08:52.976Z,99.8
2018-11-23T07:10:50.022Z,99.9
2018-11-23T07:12:49.971Z,100.0
2018-11-23T07:14:49.990Z,100.0
2018-11-23T07:16:50.135Z,100.0
2018-11-23T07:18:50.152Z,99.8
2018-11-23T07:20:50.219Z,99.9
2018-11-23T07:22:50.238Z,99.7
2018-11-23T07:24:50.254Z,99.5
2018-11-23T07:26:50.422Z,100.0
2018-11-23T07:28:50.412Z,100.0
2018-11-23T07:30:50.414Z,100.0
2018-11-23T07:32:50.491Z,99.8
2018-11-23T07:34:49.789Z,99.9
2018-11-23T07:36:50.123Z,100.0
2018-11-23T07:38:50.121Z,99.9
2018-11-23T07:40:50.102Z,98.7
2018-11-23T07:42:50.054Z,98.6
2018-11-23T07:44:50.019Z,98.5
2018-11-23T07:46:50.316Z,98.3
2018-11-23T07:48:50.440Z,98.5
2018-11-23T07:50:50.449Z,98.3
2018-11-23T07:52:50.463Z,98.4
2018-11-23T07:54:50.495Z,98.0
2018-11-23T07:56:50.660Z,98.2
2018-11-23T07:58:50.713Z,98.0
2018-11-23T08:00:50.755Z,97.9
2018-11-23T08:02:49.969Z,97.7
2018-11-23T08:04:50.356Z,97.5
2018-11-23T08:06:50.718Z,97.4
2018-11-23T08:08:49.816Z,96.9
2018-11-23T08:10:49.785Z,97.0
2018-11-23T08:12:50.786Z,96.9
2018-11-23T08:14:49.892Z,96.9
2018-11-23T08:16:50.379Z,96.8
2018-11-23T08:18:50.378Z,96.9
2018-11-23T08:20:50.336Z,96.8
2018-11-23T08:22:50.342Z,96.4
2018-11-23T08:24:50.351Z,96.6
2018-11-23T08:26:50.641Z,96.8
2018-11-23T08:28:50.667Z,97.2
2018-11-23T08:30:49.815Z,97.8
2018-11-23T08:32:49.852Z,97.7
2018-11-23T08:34:50.265Z,97.6
2018-11-23T08:36:50.409Z,97.7
2018-11-23T08:38:50.367Z,97.7
2018-11-23T08:40:50.377Z,98.1
2018-11-23T08:42:50.375Z,98.1
2018-11-23T08:44:50.357Z,98.1
2018-11-23T08:46:49.788Z,97.4
2018-11-23T08:48:49.792Z,97.1
2018-11-23T08:50:49.826Z,96.8
2018-11-23T08:52:49.787Z,96.9
2018-11-23T08:54:49.785Z,97.2
2018-11-23T08:56:50.423Z,97.2
2018-11-23T08:58:50.454Z,97.3
2018-11-23T09:00:50.417Z,97.2
2018-11-23T09:02:50.500Z,97.2
2018-11-23T09:04:50.067Z,97.0
2018-11-23T09:06:50.203Z,96.8
2018-11-23T09:08:50.181Z,96.5
2018-11-23T09:10:50.174Z,96.2
2018-11-23T09:12:50.156Z,96.3
2018-11-23T09:14:50.157Z,97.3
2018-11-23T09:16:50.437Z,96.6
2018-11-23T09:18:50.445Z,96.6
2018-11-23T09:20:50.422Z,96.2
2018-11-23T09:22:50.481Z,96.5
2018-11-23T09:24:50.623Z,97.3
2018-11-23T09:26:49.917Z,97.1
2018-11-23T09:28:49.908Z,96.3
2018-11-23T09:30:49.901Z,96.3
2018-11-23T09:32:49.893Z,96.0
2018-11-23T09:34:50.295Z,95.4
2018-11-23T09:36:50.421Z,95.5
2018-11-23T09:38:50.357Z,95.3
2018-11-23T09:40:50.423Z,95.1
2018-11-23T09:42:50.432Z,95.0
2018-11-23T09:44:50.457Z,95.6
2018-11-23T09:46:50.112Z,95.9
2018-11-23T09:48:50.470Z,95.2
2018-11-23T09:50:50.455Z,94.8
2018-11-23T09:52:50.560Z,95.3
2018-11-23T09:54:50.745Z,95.7
2018-11-23T09:56:50.070Z,95.3
2018-11-23T09:58:50.060Z,95.0
2018-11-23T10:00:50.331Z,95.2
2018-11-23T10:02:50.339Z,94.6
2018-11-23T10:04:51.005Z,95.0
2018-11-23T10:06:50.307Z,95.0
2018-11-23T10:08:50.257Z,94.7
2018-11-23T10:10:50.251Z,94.7
2018-11-23T10:12:50.239Z,95.3
2018-11-23T10:14:50.261Z,96.3
2018-11-23T10:16:50.481Z,95.6
2018-11-23T10:18:50.529Z,95.8
2018-11-23T10:20:50.552Z,95.5
2018-11-23T10:22:50.582Z,95.1
2018-11-23T10:24:50.633Z,94.8
2018-11-23T10:26:50.174Z,95.2
2018-11-23T10:28:50.241Z,94.8
2018-11-23T10:30:50.336Z,94.4
2018-11-23T10:32:50.554Z,94.4
2018-11-23T10:34:49.879Z,94.7
2018-11-23T10:36:50.270Z,94.5
2018-11-23T10:38:50.349Z,94.7
2018-11-23T10:40:50.406Z,94.8
2018-11-23T10:42:50.416Z,94.4
2018-11-23T10:44:50.386Z,94.2
2018-11-23T10:46:50.647Z,94.3
2018-11-23T10:48:50.732Z,94.6
2018-11-23T10:50:49.779Z,95.2
2018-11-23T10:52:49.913Z,94.0
2018-11-23T10:54:49.884Z,93.0
2018-11-23T10:56:50.359Z,92.1
2018-11-23T10:58:50.307Z,93.1
2018-11-23T11:00:50.368Z,92.7
2018-11-23T11:02:50.382Z,92.5
2018-11-23T11:04:50.747Z,93.0
2018-11-23T11:06:49.961Z,92.7
2018-11-23T11:08:50.684Z,92.4
2018-11-23T11:10:50.913Z,93.3
2018-11-23T11:12:50.061Z,93.6
2018-11-23T11:14:50.178Z,93.4
2018-11-23T11:16:50.628Z,92.7
2018-11-23T11:18:50.012Z,93.2
2018-11-23T11:20:50.018Z,93.1
2018-11-23T11:22:50.025Z,93.6
2018-11-23T11:24:51.051Z,93.0
2018-11-23T11:26:50.270Z,92.7
2018-11-23T11:28:50.346Z,93.6
2018-11-23T11:30:50.447Z,93.2
2018-11-23T11:32:50.459Z,93.6
2018-11-23T11:34:49.902Z,93.1
2018-11-23T11:36:50.142Z,93.2
2018-11-23T11:38:50.277Z,92.8
2018-11-23T11:40:50.350Z,92.1
2018-11-23T11:42:50.420Z,91.9
2018-11-23T11:44:50.399Z,91.2
2018-11-23T11:46:50.821Z,92.1
2018-11-23T11:48:49.897Z,92.5
2018-11-23T11:50:49.995Z,91.9
2018-11-23T11:52:49.930Z,91.1
2018-11-23T11:54:49.910Z,91.1
2018-11-23T11:56:50.216Z,92.3
2018-11-23T11:58:50.203Z,92.8
2018-11-23T12:00:50.218Z,91.6
2018-11-23T12:02:50.300Z,93.2
2018-11-23T12:04:50.616Z,93.2
2018-11-23T12:06:49.902Z,92.0
2018-11-23T12:08:50.041Z,92.9
2018-11-23T12:10:50.082Z,92.4
2018-11-23T12:12:50.089Z,92.6
2018-11-23T12:14:50.104Z,92.4
2018-11-23T12:16:50.218Z,91.7
2018-11-23T12:18:50.225Z,91.5
2018-11-23T12:20:50.267Z,92.1
2018-11-23T12:22:50.284Z,91.6
2018-11-23T12:24:50.313Z,92.1
2018-11-23T12:26:50.543Z,92.1
2018-11-23T12:28:50.540Z,91.8
2018-11-23T12:30:50.586Z,90.9
2018-11-23T12:32:50.632Z,90.6
2018-11-23T12:34:50.038Z,90.8
2018-11-23T12:36:50.237Z,90.8
2018-11-23T12:38:50.229Z,89.8
2018-11-23T12:40:50.231Z,89.7
2018-11-23T12:42:50.290Z,90.7
2018-11-23T12:44:50.441Z,91.1
2018-11-23T12:46:50.589Z,91.1
2018-11-23T12:48:50.586Z,91.1
2018-11-23T12:50:51.081Z,90.0
2018-11-23T12:52:50.083Z,91.9
2018-11-23T12:54:50.108Z,91.5
2018-11-23T12:56:50.397Z,91.2
2018-11-23T12:58:50.021Z,91.4
2018-11-23T13:00:50.288Z,90.8
2018-11-23T13:02:50.409Z,90.8
2018-11-23T13:04:49.841Z,90.0
2018-11-23T13:06:50.751Z,91.3
2018-11-23T13:08:50.215Z,91.4
2018-11-23T13:10:50.325Z,91.2
2018-11-23T13:12:51.462Z,91.7
2018-11-23T13:14:50.487Z,90.9
2018-11-23T13:16:49.806Z,91.5
2018-11-23T13:18:49.833Z,92.2
2018-11-23T13:20:49.809Z,91.7
2018-11-23T13:22:49.871Z,91.1
2018-11-23T13:24:49.846Z,91.0
2018-11-23T13:26:50.164Z,90.9
2018-11-23T13:28:50.094Z,91.6
2018-11-23T13:30:50.068Z,91.6
2018-11-23T13:32:50.127Z,92.2
2018-11-23T13:34:50.504Z,92.3
2018-11-23T13:36:49.803Z,92.2
2018-11-23T13:38:49.959Z,91.8
2018-11-23T13:40:49.888Z,92.4
2018-11-23T13:42:50.046Z,92.3
2018-11-23T13:44:50.016Z,93.1
2018-11-23T13:46:50.392Z,93.1
2018-11-23T13:48:50.353Z,93.0
2018-11-23T13:50:50.354Z,93.7
2018-11-23T13:52:50.320Z,93.9
2018-11-23T13:54:50.346Z,93.9
2018-11-23T13:56:50.494Z,94.3
2018-11-23T13:58:50.463Z,93.7
2018-11-23T14:00:50.477Z,93.9
2018-11-23T14:02:50.488Z,94.1
2018-11-23T14:04:49.903Z,94.1
2018-11-23T14:06:50.131Z,94.4
2018-11-23T14:08:50.101Z,94.3
2018-11-23T14:10:50.093Z,94.3
2018-11-23T14:12:50.119Z,94.8
2018-11-23T14:14:50.080Z,94.8
2018-11-23T14:16:50.326Z,95.0
2018-11-23T14:18:50.285Z,95.0
2018-11-23T14:20:50.292Z,94.5
2018-11-23T14:22:50.241Z,94.8
2018-11-23T14:24:50.288Z,95.2
2018-11-23T14:26:50.416Z,95.3
2018-11-23T14:28:50.516Z,95.6
2018-11-23T14:30:50.562Z,95.4
2018-11-23T14:32:50.769Z,95.6
2018-11-23T14:34:50.151Z,96.3
2018-11-23T14:36:50.307Z,96.1
2018-11-23T14:38:50.360Z,95.9
2018-11-23T14:40:50.443Z,96.2
2018-11-23T14:42:50.478Z,96.2
2018-11-23T14:44:50.560Z,95.6
2018-11-23T14:46:50.756Z,95.8
2018-11-23T14:48:49.959Z,95.8
2018-11-23T14:50:49.832Z,96.2
2018-11-23T14:52:50.001Z,95.8
2018-11-23T14:54:49.917Z,95.8
2018-11-23T14:56:50.219Z,95.9
2018-11-23T14:58:50.195Z,96.2
2018-11-23T15:00:50.173Z,96.1
2018-11-23T15:02:50.188Z,96.0
2018-11-23T15:04:50.514Z,96.2
2018-11-23T15:06:50.679Z,96.4
2018-11-23T15:08:50.646Z,96.6
2018-11-23T15:10:49.916Z,96.3
2018-11-23T15:12:49.944Z,96.9
2018-11-23T15:14:49.979Z,96.6
2018-11-23T15:16:50.415Z,96.8
2018-11-23T15:18:50.264Z,96.9
2018-11-23T15:20:50.246Z,96.8
2018-11-23T15:22:50.439Z,96.8
2018-11-23T15:24:50.467Z,97.0
2018-11-23T15:26:50.614Z,96.7
2018-11-23T15:28:50.667Z,97.1
2018-11-23T15:30:50.661Z,96.9
2018-11-23T15:32:49.866Z,97.1
2018-11-23T15:34:50.262Z,96.7
2018-11-23T15:36:50.450Z,97.2
2018-11-23T15:38:50.362Z,97.4
2018-11-23T15:40:50.334Z,97.6
2018-11-23T15:42:50.354Z,97.1
2018-11-23T15:44:50.367Z,97.7
2018-11-23T15:46:50.506Z,97.4
2018-11-23T15:48:50.551Z,97.5
2018-11-23T15:50:50.661Z,97.0
2018-11-23T15:52:50.577Z,97.2
2018-11-23T15:54:50.478Z,97.0
2018-11-23T15:56:50.731Z,97.0
2018-11-23T15:58:50.681Z,97.5
2018-11-23T16:00:49.797Z,97.0
2018-11-23T16:02:49.785Z,97.3
2018-11-23T16:04:50.177Z,97.2
2018-11-23T16:06:50.431Z,97.0
2018-11-23T16:08:50.364Z,97.2
2018-11-23T16:10:50.337Z,97.3
2018-11-23T16:12:50.350Z,96.9
2018-11-23T16:14:50.334Z,97.3
2018-11-23T16:16:50.580Z,97.2
2018-11-23T16:18:50.561Z,96.8
2018-11-23T16:20:50.581Z,96.9
2018-11-23T16:22:50.622Z,96.9
2018-11-23T16:24:50.631Z,97.0
2018-11-23T16:26:50.718Z,96.8
2018-11-23T16:28:50.761Z,96.8
2018-11-23T16:30:50.818Z,96.7
2018-11-23T16:32:49.862Z,96.7
2018-11-23T16:34:50.243Z,97.4
2018-11-23T16:36:50.384Z,97.3
2018-11-23T16:38:50.367Z,96.9
2018-11-23T16:40:50.371Z,96.8
2018-11-23T16:42:50.377Z,97.1
2018-11-23T16:44:50.369Z,96.5
2018-11-23T16:46:50.455Z,96.8
2018-11-23T16:48:50.426Z,96.8
2018-11-23T16:50:50.421Z,96.4
2018-11-23T16:52:50.384Z,96.3
2018-11-23T16:54:50.444Z,96.1
2018-11-23T16:56:50.696Z,96.0
2018-11-23T16:58:50.621Z,96.6
2018-11-23T17:00:50.611Z,96.9
2018-11-23T17:02:50.614Z,96.9
2018-11-23T17:04:49.945Z,97.3
2018-11-23T17:06:50.211Z,97.5
2018-11-23T17:08:50.219Z,97.6
2018-11-23T17:10:50.276Z,97.9
2018-11-23T17:12:50.313Z,97.9
2018-11-23T17:14:50.349Z,98.2
2018-11-23T17:16:50.481Z,98.6
2018-11-23T17:18:50.520Z,98.8
2018-11-23T17:20:50.434Z,99.0
2018-11-23T17:22:50.623Z,99.0
2018-11-23T17:24:50.617Z,99.4
2018-11-23T17:26:49.873Z,99.5
2018-11-23T17:28:49.904Z,99.6
2018-11-23T17:30:49.886Z,99.8
2018-11-23T17:32:49.923Z,100.0
2018-11-23T17:34:50.395Z,100.0
2018-11-23T17:36:50.653Z,100.0
2018-11-23T17:38:50.669Z,100.0
2018-11-23T17:40:50.693Z,100.0
2018-11-23T17:42:49.825Z,100.0
2018-11-23T17:44:49.803Z,100.0
2018-11-23T17:46:49.957Z,100.0
2018-11-23T17:48:50.047Z,100.0
2018-11-23T17:50:50.046Z,100.0
2018-11-23T17:52:50.024Z,100.0
2018-11-23T17:54:50.003Z,100.0
2018-11-23T17:56:50.124Z,100.0
2018-11-23T17:58:50.135Z,100.0
2018-11-23T18:00:50.185Z,100.0
2018-11-23T18:02:50.158Z,100.0
2018-11-23T18:04:50.457Z,100.0
2018-11-23T18:06:50.645Z,100.0
2018-11-23T18:08:50.591Z,100.0
2018-11-23T18:10:50.643Z,100.0
2018-11-23T18:12:50.649Z,100.0
2018-11-23T18:14:50.681Z,100.0
2018-11-23T18:16:49.934Z,100.0
2018-11-23T18:18:49.895Z,100.0
2018-11-23T18:20:49.940Z,100.0
2018-11-23T18:22:49.944Z,100.0
2018-11-23T18:24:50.060Z,100.0
2018-11-23T18:26:50.280Z,100.0
2018-11-23T18:28:50.276Z,100.0
2018-11-23T18:30:50.277Z,100.0
2018-11-23T18:32:50.311Z,100.0
2018-11-23T18:34:50.596Z,100.0
2018-11-23T18:36:50.768Z,100.0
2018-11-23T18:38:49.888Z,100.0
2018-11-23T18:40:49.806Z,100.0
2018-11-23T18:42:49.859Z,100.0
2018-11-23T18:44:49.968Z,100.0
2018-11-23T18:46:50.208Z,100.0
2018-11-23T18:48:51.054Z,100.0
2018-11-23T18:50:50.052Z,100.0
2018-11-23T18:52:50.061Z,100.0
2018-11-23T18:54:50.012Z,100.0
2018-11-23T18:56:50.173Z,100.0
2018-11-23T18:58:50.172Z,100.0
2018-11-23T19:00:50.126Z,100.0
2018-11-23T19:02:50.124Z,100.0
2018-11-23T19:04:50.474Z,100.0
2018-11-23T19:06:50.613Z,100.0
2018-11-23T19:08:50.641Z,100.0
2018-11-23T19:10:50.567Z,100.0
2018-11-23T19:12:50.728Z,100.0
2018-11-23T19:14:50.685Z,100.0
2018-11-23T19:16:49.943Z,100.0
2018-11-23T19:18:49.974Z,100.0
2018-11-23T19:20:49.977Z,100.0
2018-11-23T19:22:49.995Z,100.0
2018-11-23T19:24:49.998Z,100.0
2018-11-23T19:26:50.184Z,100.0
2018-11-23T19:28:50.166Z,100.0
2018-11-23T19:30:50.221Z,100.0
2018-11-23T19:32:50.156Z,100.0
2018-11-23T19:34:50.499Z,100.0
2018-11-23T19:36:50.596Z,100.0
2018-11-23T19:38:50.677Z,100.0
2018-11-23T19:40:50.724Z,100.0
2018-11-23T19:42:50.758Z,100.0
2018-11-23T19:44:49.963Z,100.0
2018-11-23T19:46:50.242Z,100.0
2018-11-23T19:48:50.229Z,100.0
2018-11-23T19:50:50.216Z,100.0
2018-11-23T19:52:50.134Z,100.0
2018-11-23T19:54:50.126Z,100.0
2018-11-23T19:56:50.317Z,100.0
2018-11-23T19:58:50.283Z,100.0
2018-11-23T20:00:50.326Z,100.0
2018-11-23T20:02:50.345Z,100.0
2018-11-23T20:04:50.698Z,100.0
2018-11-23T20:06:49.917Z,100.0
2018-11-23T20:08:49.862Z,100.0
2018-11-23T20:10:49.918Z,100.0
2018-11-23T20:12:49.958Z,100.0
2018-11-23T20:14:50.021Z,100.0
2018-11-23T20:16:50.239Z,100.0
2018-11-23T20:18:50.207Z,100.0
2018-11-23T21:42:49.924Z,100.0
2018-11-23T21:44:49.925Z,100.0
2018-11-23T21:46:50.303Z,100.0
2018-11-23T21:48:50.258Z,100.0
2018-11-23T21:50:50.317Z,100.0
2018-11-23T21:52:50.321Z,100.0
2018-11-23T21:54:50.293Z,100.0
2018-11-23T21:56:50.661Z,100.0
2018-11-23T21:58:49.878Z,100.0
2018-11-23T22:00:49.816Z,100.0
2018-11-23T22:02:49.901Z,100.0
2018-11-23T22:04:50.369Z,100.0
2018-11-23T22:06:50.496Z,100.0
2018-11-23T22:08:50.513Z,100.0
2018-11-23T22:10:50.531Z,100.0
2018-11-23T22:12:50.513Z,100.0
2018-11-23T22:14:50.526Z,100.0
2018-11-23T22:16:50.768Z,100.0
2018-11-23T22:18:49.787Z,100.0
2018-11-23T22:20:49.876Z,100.0
2018-11-23T22:22:49.818Z,100.0
2018-11-23T22:24:49.869Z,100.0
2018-11-23T22:26:50.069Z,100.0
2018-11-23T22:28:50.107Z,100.0
2018-11-23T22:30:50.094Z,100.0
2018-11-23T22:32:50.040Z,100.0
2018-11-23T22:34:50.421Z,100.0
2018-11-23T22:36:50.748Z,100.0
2018-11-23T22:38:49.800Z,100.0
2018-11-23T22:40:49.791Z,100.0
2018-11-23T22:42:49.811Z,100.0
2018-11-23T22:44:50.787Z,100.0
2018-11-23T22:46:49.995Z,100.0
2018-11-23T22:48:50.021Z,100.0
2018-11-23T22:50:50.096Z,100.0
2018-11-23T22:52:50.158Z,100.0
2018-11-23T22:54:50.173Z,100.0
2018-11-23T22:56:50.322Z,100.0
2018-11-23T22:58:55.982Z,100.0
2018-11-23T23:00:49.964Z,100.0
2018-11-23T23:02:50.055Z,100.0
2018-11-23T23:04:50.431Z,100.0
2018-11-23T23:06:50.701Z,100.0
2018-11-23T23:08:50.745Z,100.0
2018-11-23T23:10:50.812Z,100.0
2018-11-23T23:12:49.802Z,100.0
2018-11-23T23:14:49.799Z,100.0
2018-11-23T23:16:50.117Z,100.0
2018-11-23T23:18:50.194Z,100.0
2018-11-23T23:20:50.266Z,100.0
2018-11-23T23:22:50.240Z,100.0
2018-11-23T23:24:50.218Z,100.0
2018-11-23T23:26:50.489Z,100.0
2018-11-23T23:28:50.559Z,100.0
2018-11-23T23:30:50.564Z,100.0
2018-11-23T23:32:50.611Z,100.0
2018-11-23T23:34:49.992Z,100.0
2018-11-23T23:36:50.314Z,100.0
2018-11-23T23:38:50.302Z,100.0
2018-11-23T23:40:50.348Z,100.0
2018-11-23T23:42:50.377Z,100.0
2018-11-23T23:44:50.356Z,100.0
2018-11-23T23:46:50.521Z,100.0
2018-11-23T23:48:50.457Z,100.0
2018-11-23T23:50:50.560Z,100.0
2018-11-23T23:52:50.605Z,100.0
2018-11-23T23:54:50.586Z,100.0
2018-11-23T23:56:50.018Z,100.0
2018-11-23T23:58:50.026Z,100.0
